sensor_id;sensor_type;location;lat;lon;timestamp;temperature;humidity
66190;DHT22;52992;52.084;5.412;2023-05-16T00:00:37;14.50;53.90
66190;DHT22;52992;52.084;5.412;2023-05-16T00:03:04;14.50;54.40
66190;DHT22;52992;52.084;5.412;2023-05-16T00:05:32;14.60;54.40
66190;DHT22;52992;52.084;5.412;2023-05-16T00:07:58;14.50;54.30
66190;DHT22;52992;52.084;5.412;2023-05-16T00:10:25;14.50;54.30
66190;DHT22;52992;52.084;5.412;2023-05-16T00:12:53;14.40;54.50
66190;DHT22;52992;52.084;5.412;2023-05-16T00:15:20;14.40;54.70
66190;DHT22;52992;52.084;5.412;2023-05-16T00:17:47;14.40;54.80
66190;DHT22;52992;52.084;5.412;2023-05-16T00:20:15;14.40;55.10
66190;DHT22;52992;52.084;5.412;2023-05-16T00:22:44;14.40;54.70
66190;DHT22;52992;52.084;5.412;2023-05-16T00:25:11;14.30;54.50
66190;DHT22;52992;52.084;5.412;2023-05-16T00:27:38;14.30;54.70
66190;DHT22;52992;52.084;5.412;2023-05-16T00:30:06;14.30;54.50
66190;DHT22;52992;52.084;5.412;2023-05-16T00:32:34;14.30;54.50
66190;DHT22;52992;52.084;5.412;2023-05-16T00:35:02;14.20;54.50
66190;DHT22;52992;52.084;5.412;2023-05-16T00:37:29;14.20;54.70
66190;DHT22;52992;52.084;5.412;2023-05-16T00:39:56;14.20;54.20
66190;DHT22;52992;52.084;5.412;2023-05-16T00:42:22;14.20;54.60
66190;DHT22;52992;52.084;5.412;2023-05-16T00:44:49;14.10;54.30
66190;DHT22;52992;52.084;5.412;2023-05-16T00:47:16;14.00;53.90
66190;DHT22;52992;52.084;5.412;2023-05-16T00:49:43;14.00;54.10
66190;DHT22;52992;52.084;5.412;2023-05-16T00:52:10;13.90;54.20
66190;DHT22;52992;52.084;5.412;2023-05-16T00:54:38;13.90;54.00
66190;DHT22;52992;52.084;5.412;2023-05-16T00:57:05;13.80;54.30
66190;DHT22;52992;52.084;5.412;2023-05-16T00:59:33;13.90;54.70
66190;DHT22;52992;52.084;5.412;2023-05-16T01:02:00;13.80;54.60
66190;DHT22;52992;52.084;5.412;2023-05-16T01:04:28;13.90;54.80
66190;DHT22;52992;52.084;5.412;2023-05-16T01:06:56;13.80;54.60
66190;DHT22;52992;52.084;5.412;2023-05-16T01:09:23;13.90;54.60
66190;DHT22;52992;52.084;5.412;2023-05-16T01:12:10;13.80;54.10
66190;DHT22;52992;52.084;5.412;2023-05-16T01:17:28;13.70;54.10
66190;DHT22;52992;52.084;5.412;2023-05-16T01:25:57;13.60;
66190;DHT22;52992;52.084;5.412;2023-05-16T01:28:29;13.50;53.50
66190;DHT22;52992;52.084;5.412;2023-05-16T01:30:56;13.50;53.90
66190;DHT22;52992;52.084;5.412;2023-05-16T01:33:23;13.50;53.80
66190;DHT22;52992;52.084;5.412;2023-05-16T01:36:19;13.50;54.10
66190;DHT22;52992;52.084;5.412;2023-05-16T01:44:07;13.40;53.80
66190;DHT22;52992;52.084;5.412;2023-05-16T01:46:39;13.40;54.00
66190;DHT22;52992;52.084;5.412;2023-05-16T01:49:34;13.40;54.10
66190;DHT22;52992;52.084;5.412;2023-05-16T01:52:07;13.40;54.10
66190;DHT22;52992;52.084;5.412;2023-05-16T01:54:38;13.40;54.00
66190;DHT22;52992;52.084;5.412;2023-05-16T01:57:08;13.40;54.10
66190;DHT22;52992;52.084;5.412;2023-05-16T01:59:36;13.40;54.10
66190;DHT22;52992;52.084;5.412;2023-05-16T02:02:04;13.40;54.20
66190;DHT22;52992;52.084;5.412;2023-05-16T02:04:31;13.40;54.20
66190;DHT22;52992;52.084;5.412;2023-05-16T02:06:58;13.40;54.10
66190;DHT22;52992;52.084;5.412;2023-05-16T02:09:26;13.30;54.20
66190;DHT22;52992;52.084;5.412;2023-05-16T02:11:53;13.30;54.20
66190;DHT22;52992;52.084;5.412;2023-05-16T02:14:20;13.30;54.40
66190;DHT22;52992;52.084;5.412;2023-05-16T02:16:47;13.30;54.40
66190;DHT22;52992;52.084;5.412;2023-05-16T02:19:15;13.30;54.30
66190;DHT22;52992;52.084;5.412;2023-05-16T02:21:42;13.20;54.30
66190;DHT22;52992;52.084;5.412;2023-05-16T02:24:10;13.30;54.50
66190;DHT22;52992;52.084;5.412;2023-05-16T02:26:37;13.20;54.50
66190;DHT22;52992;52.084;5.412;2023-05-16T02:29:04;13.20;54.60
66190;DHT22;52992;52.084;5.412;2023-05-16T02:31:32;13.20;54.40
66190;DHT22;52992;52.084;5.412;2023-05-16T02:34:00;13.20;54.60
66190;DHT22;52992;52.084;5.412;2023-05-16T02:36:27;13.20;55.00
66190;DHT22;52992;52.084;5.412;2023-05-16T02:38:54;13.20;55.20
66190;DHT22;52992;52.084;5.412;2023-05-16T02:41:21;13.20;55.20
66190;DHT22;52992;52.084;5.412;2023-05-16T02:43:48;13.20;55.10
66190;DHT22;52992;52.084;5.412;2023-05-16T02:46:25;13.20;55.00
66190;DHT22;52992;52.084;5.412;2023-05-16T02:48:53;13.20;55.20
66190;DHT22;52992;52.084;5.412;2023-05-16T02:51:21;13.10;55.30
66190;DHT22;52992;52.084;5.412;2023-05-16T02:53:49;13.10;55.20
66190;DHT22;52992;52.084;5.412;2023-05-16T02:56:17;13.10;55.40
66190;DHT22;52992;52.084;5.412;2023-05-16T02:58:46;13.10;55.50
66190;DHT22;52992;52.084;5.412;2023-05-16T03:01:14;13.10;55.30
66190;DHT22;52992;52.084;5.412;2023-05-16T03:03:41;13.10;55.40
66190;DHT22;52992;52.084;5.412;2023-05-16T03:06:08;13.10;55.50
66190;DHT22;52992;52.084;5.412;2023-05-16T03:08:35;13.10;55.70
66190;DHT22;52992;52.084;5.412;2023-05-16T03:11:02;13.10;55.70
66190;DHT22;52992;52.084;5.412;2023-05-16T03:13:29;13.10;55.70
66190;DHT22;52992;52.084;5.412;2023-05-16T03:15:57;13.10;55.70
66190;DHT22;52992;52.084;5.412;2023-05-16T03:18:25;13.00;55.60
66190;DHT22;52992;52.084;5.412;2023-05-16T03:20:51;13.00;55.80
66190;DHT22;52992;52.084;5.412;2023-05-16T03:23:19;13.00;55.90
66190;DHT22;52992;52.084;5.412;2023-05-16T03:25:46;13.00;56.00
66190;DHT22;52992;52.084;5.412;2023-05-16T03:28:15;13.00;55.80
66190;DHT22;52992;52.084;5.412;2023-05-16T03:30:42;13.00;55.40
66190;DHT22;52992;52.084;5.412;2023-05-16T03:33:09;13.00;55.50
66190;DHT22;52992;52.084;5.412;2023-05-16T03:35:36;12.90;55.80
66190;DHT22;52992;52.084;5.412;2023-05-16T03:38:03;13.00;56.00
66190;DHT22;52992;52.084;5.412;2023-05-16T03:40:30;13.00;56.20
66190;DHT22;52992;52.084;5.412;2023-05-16T03:42:57;13.00;56.10
66190;DHT22;52992;52.084;5.412;2023-05-16T03:45:24;13.00;56.10
66190;DHT22;52992;52.084;5.412;2023-05-16T03:47:51;13.00;55.90
66190;DHT22;52992;52.084;5.412;2023-05-16T03:50:18;12.90;56.00
66190;DHT22;52992;52.084;5.412;2023-05-16T03:52:45;13.00;55.90
66190;DHT22;52992;52.084;5.412;2023-05-16T03:55:11;13.00;56.00
66190;DHT22;52992;52.084;5.412;2023-05-16T03:57:41;13.00;56.10
66190;DHT22;52992;52.084;5.412;2023-05-16T04:00:09;13.00;56.10
66190;DHT22;52992;52.084;5.412;2023-05-16T04:02:39;13.00;56.10
66190;DHT22;52992;52.084;5.412;2023-05-16T04:05:07;12.90;55.80
66190;DHT22;52992;52.084;5.412;2023-05-16T04:07:36;12.90;55.90
66190;DHT22;52992;52.084;5.412;2023-05-16T04:10:03;13.00;55.70
66190;DHT22;52992;52.084;5.412;2023-05-16T04:12:30;12.90;55.80
66190;DHT22;52992;52.084;5.412;2023-05-16T04:14:57;12.90;56.10
66190;DHT22;52992;52.084;5.412;2023-05-16T04:17:24;12.90;56.10
66190;DHT22;52992;52.084;5.412;2023-05-16T04:19:51;12.90;56.40
66190;DHT22;52992;52.084;5.412;2023-05-16T04:22:20;13.00;56.50
66190;DHT22;52992;52.084;5.412;2023-05-16T04:24:48;12.90;56.60
66190;DHT22;52992;52.084;5.412;2023-05-16T04:27:14;12.90;56.50
66190;DHT22;52992;52.084;5.412;2023-05-16T04:29:41;12.90;56.50
66190;DHT22;52992;52.084;5.412;2023-05-16T04:32:09;12.90;56.40
66190;DHT22;52992;52.084;5.412;2023-05-16T04:34:36;12.90;56.50
66190;DHT22;52992;52.084;5.412;2023-05-16T04:37:06;13.00;56.50
66190;DHT22;52992;52.084;5.412;2023-05-16T04:39:34;13.10;56.60
66190;DHT22;52992;52.084;5.412;2023-05-16T04:42:02;13.10;56.60
66190;DHT22;52992;52.084;5.412;2023-05-16T04:44:29;13.10;56.60
66190;DHT22;52992;52.084;5.412;2023-05-16T04:46:57;13.10;56.70
66190;DHT22;52992;52.084;5.412;2023-05-16T04:49:24;13.10;56.60
66190;DHT22;52992;52.084;5.412;2023-05-16T04:51:51;13.10;56.70
66190;DHT22;52992;52.084;5.412;2023-05-16T04:54:18;13.20;56.80
66190;DHT22;52992;52.084;5.412;2023-05-16T04:56:44;13.30;56.80
66190;DHT22;52992;52.084;5.412;2023-05-16T04:59:11;13.30;56.80
66190;DHT22;52992;52.084;5.412;2023-05-16T05:01:38;13.30;56.70
66190;DHT22;52992;52.084;5.412;2023-05-16T05:04:05;13.40;56.70
66190;DHT22;52992;52.084;5.412;2023-05-16T05:06:32;13.50;56.80
66190;DHT22;52992;52.084;5.412;2023-05-16T05:08:59;13.50;56.90
66190;DHT22;52992;52.084;5.412;2023-05-16T05:11:26;13.60;56.70
66190;DHT22;52992;52.084;5.412;2023-05-16T05:13:53;13.60;56.40
66190;DHT22;52992;52.084;5.412;2023-05-16T05:16:20;13.70;56.30
66190;DHT22;52992;52.084;5.412;2023-05-16T05:18:47;13.70;55.90
66190;DHT22;52992;52.084;5.412;2023-05-16T05:21:14;13.70;55.80
66190;DHT22;52992;52.084;5.412;2023-05-16T05:23:41;13.70;55.30
66190;DHT22;52992;52.084;5.412;2023-05-16T05:26:08;13.80;55.40
66190;DHT22;52992;52.084;5.412;2023-05-16T05:28:35;13.80;55.00
66190;DHT22;52992;52.084;5.412;2023-05-16T05:31:03;13.90;54.90
66190;DHT22;52992;52.084;5.412;2023-05-16T05:33:33;13.90;55.00
66190;DHT22;52992;52.084;5.412;2023-05-16T05:36:00;14.00;54.40
66190;DHT22;52992;52.084;5.412;2023-05-16T05:38:29;14.00;55.00
66190;DHT22;52992;52.084;5.412;2023-05-16T05:40:56;14.00;53.80
66190;DHT22;52992;52.084;5.412;2023-05-16T05:43:23;14.00;53.70
66190;DHT22;52992;52.084;5.412;2023-05-16T05:45:51;14.10;53.60
66190;DHT22;52992;52.084;5.412;2023-05-16T05:48:18;14.00;53.70
66190;DHT22;52992;52.084;5.412;2023-05-16T05:50:45;14.10;53.50
66190;DHT22;52992;52.084;5.412;2023-05-16T05:53:11;14.20;53.40
66190;DHT22;52992;52.084;5.412;2023-05-16T05:55:38;14.30;53.30
66190;DHT22;52992;52.084;5.412;2023-05-16T05:58:08;14.30;53.40
66190;DHT22;52992;52.084;5.412;2023-05-16T06:00:35;14.40;52.90
66190;DHT22;52992;52.084;5.412;2023-05-16T06:03:02;14.50;52.90
66190;DHT22;52992;52.084;5.412;2023-05-16T06:05:29;14.50;52.50
66190;DHT22;52992;52.084;5.412;2023-05-16T06:07:56;14.60;52.40
66190;DHT22;52992;52.084;5.412;2023-05-16T06:10:23;14.60;51.90
66190;DHT22;52992;52.084;5.412;2023-05-16T06:12:50;14.70;51.80
66190;DHT22;52992;52.084;5.412;2023-05-16T06:15:17;14.80;52.10
66190;DHT22;52992;52.084;5.412;2023-05-16T06:17:44;15.00;51.80
66190;DHT22;52992;52.084;5.412;2023-05-16T06:20:11;15.00;50.80
66190;DHT22;52992;52.084;5.412;2023-05-16T06:22:37;15.20;51.00
66190;DHT22;52992;52.084;5.412;2023-05-16T06:25:05;15.30;50.80
66190;DHT22;52992;52.084;5.412;2023-05-16T06:27:32;15.40;51.00
66190;DHT22;52992;52.084;5.412;2023-05-16T06:29:59;15.60;50.60
66190;DHT22;52992;52.084;5.412;2023-05-16T06:32:26;15.60;48.50
66190;DHT22;52992;52.084;5.412;2023-05-16T06:34:53;15.70;48.80
66190;DHT22;52992;52.084;5.412;2023-05-16T06:37:19;15.70;47.20
66190;DHT22;52992;52.084;5.412;2023-05-16T06:39:46;15.80;47.10
66190;DHT22;52992;52.084;5.412;2023-05-16T06:42:13;15.80;46.10
66190;DHT22;52992;52.084;5.412;2023-05-16T06:44:41;15.80;46.60
66190;DHT22;52992;52.084;5.412;2023-05-16T06:47:08;15.90;47.50
66190;DHT22;52992;52.084;5.412;2023-05-16T06:49:35;16.20;45.80
66190;DHT22;52992;52.084;5.412;2023-05-16T06:52:01;16.20;45.80
66190;DHT22;52992;52.084;5.412;2023-05-16T06:54:28;16.20;43.80
66190;DHT22;52992;52.084;5.412;2023-05-16T06:56:55;16.20;44.20
66190;DHT22;52992;52.084;5.412;2023-05-16T06:59:22;16.30;44.40
66190;DHT22;52992;52.084;5.412;2023-05-16T07:01:50;16.40;43.60
66190;DHT22;52992;52.084;5.412;2023-05-16T07:04:18;16.50;42.90
66190;DHT22;52992;52.084;5.412;2023-05-16T07:06:45;16.50;42.20
66190;DHT22;52992;52.084;5.412;2023-05-16T07:09:12;16.50;42.60
66190;DHT22;52992;52.084;5.412;2023-05-16T07:11:39;16.60;43.40
66190;DHT22;52992;52.084;5.412;2023-05-16T07:14:06;16.80;43.00
66190;DHT22;52992;52.084;5.412;2023-05-16T07:16:33;16.80;41.20
66190;DHT22;52992;52.084;5.412;2023-05-16T07:19:00;16.80;41.00
66190;DHT22;52992;52.084;5.412;2023-05-16T07:21:27;16.80;41.10
66190;DHT22;52992;52.084;5.412;2023-05-16T07:23:55;16.80;41.10
66190;DHT22;52992;52.084;5.412;2023-05-16T07:26:22;16.80;41.50
66190;DHT22;52992;52.084;5.412;2023-05-16T07:28:49;16.90;42.00
66190;DHT22;52992;52.084;5.412;2023-05-16T07:31:16;17.00;41.00
66190;DHT22;52992;52.084;5.412;2023-05-16T07:33:44;17.10;40.50
66190;DHT22;52992;52.084;5.412;2023-05-16T07:36:14;17.20;40.40
66190;DHT22;52992;52.084;5.412;2023-05-16T07:38:44;17.30;40.10
66190;DHT22;52992;52.084;5.412;2023-05-16T07:41:11;17.30;39.90
66190;DHT22;52992;52.084;5.412;2023-05-16T07:43:38;17.40;39.20
66190;DHT22;52992;52.084;5.412;2023-05-16T07:46:05;17.30;38.80
66190;DHT22;52992;52.084;5.412;2023-05-16T07:48:32;17.40;39.70
66190;DHT22;52992;52.084;5.412;2023-05-16T07:50:58;17.50;39.90
66190;DHT22;52992;52.084;5.412;2023-05-16T07:53:25;17.60;40.20
66190;DHT22;52992;52.084;5.412;2023-05-16T07:55:52;17.80;38.70
66190;DHT22;52992;52.084;5.412;2023-05-16T07:58:19;17.80;38.20
66190;DHT22;52992;52.084;5.412;2023-05-16T08:00:47;17.80;38.90
66190;DHT22;52992;52.084;5.412;2023-05-16T08:03:14;17.90;39.40
66190;DHT22;52992;52.084;5.412;2023-05-16T08:05:41;18.00;37.60
66190;DHT22;52992;52.084;5.412;2023-05-16T08:08:08;18.00;37.50
66190;DHT22;52992;52.084;5.412;2023-05-16T08:10:35;18.20;37.70
66190;DHT22;52992;52.084;5.412;2023-05-16T08:13:02;18.10;38.00
66190;DHT22;52992;52.084;5.412;2023-05-16T08:15:30;17.80;38.30
66190;DHT22;52992;52.084;5.412;2023-05-16T08:17:57;17.50;39.20
66190;DHT22;52992;52.084;5.412;2023-05-16T08:20:25;17.10;41.40
66190;DHT22;52992;52.084;5.412;2023-05-16T08:22:54;16.90;42.20
66190;DHT22;52992;52.084;5.412;2023-05-16T08:25:21;16.80;43.10
66190;DHT22;52992;52.084;5.412;2023-05-16T08:27:49;16.80;43.40
66190;DHT22;52992;52.084;5.412;2023-05-16T08:30:17;17.00;42.20
66190;DHT22;52992;52.084;5.412;2023-05-16T08:32:44;17.30;41.90
66190;DHT22;52992;52.084;5.412;2023-05-16T08:35:11;17.70;40.70
66190;DHT22;52992;52.084;5.412;2023-05-16T08:37:38;18.00;40.50
66190;DHT22;52992;52.084;5.412;2023-05-16T08:40:06;18.30;40.80
66190;DHT22;52992;52.084;5.412;2023-05-16T08:42:37;18.70;41.70
66190;DHT22;52992;52.084;5.412;2023-05-16T08:45:04;19.30;40.90
66190;DHT22;52992;52.084;5.412;2023-05-16T08:47:32;19.50;38.30
66190;DHT22;52992;52.084;5.412;2023-05-16T08:50:03;19.30;37.80
66190;DHT22;52992;52.084;5.412;2023-05-16T08:52:30;18.90;37.10
66190;DHT22;52992;52.084;5.412;2023-05-16T08:55:03;18.60;37.20
66190;DHT22;52992;52.084;5.412;2023-05-16T08:57:38;18.60;37.80
66190;DHT22;52992;52.084;5.412;2023-05-16T09:00:07;18.70;37.20
66190;DHT22;52992;52.084;5.412;2023-05-16T09:02:41;18.80;35.10
66190;DHT22;52992;52.084;5.412;2023-05-16T09:05:12;18.80;34.90
66190;DHT22;52992;52.084;5.412;2023-05-16T09:07:40;19.10;35.10
66190;DHT22;52992;52.084;5.412;2023-05-16T09:10:07;19.50;34.90
66190;DHT22;52992;52.084;5.412;2023-05-16T09:12:35;19.80;33.80
66190;DHT22;52992;52.084;5.412;2023-05-16T09:15:03;20.10;33.00
66190;DHT22;52992;52.084;5.412;2023-05-16T09:17:44;20.50;32.30
66190;DHT22;52992;52.084;5.412;2023-05-16T09:20:18;20.60;32.80
66190;DHT22;52992;52.084;5.412;2023-05-16T09:22:56;20.30;31.30
66190;DHT22;52992;52.084;5.412;2023-05-16T09:25:27;19.70;31.60
66190;DHT22;52992;52.084;5.412;2023-05-16T09:27:59;19.30;32.30
66190;DHT22;52992;52.084;5.412;2023-05-16T09:30:30;19.60;32.70
66190;DHT22;52992;52.084;5.412;2023-05-16T09:32:57;20.30;33.20
66190;DHT22;52992;52.084;5.412;2023-05-16T09:35:25;20.90;29.70
66190;DHT22;52992;52.084;5.412;2023-05-16T09:37:55;21.30;28.80
66190;DHT22;52992;52.084;5.412;2023-05-16T09:40:23;21.50;28.60
66190;DHT22;52992;52.084;5.412;2023-05-16T09:43:05;21.80;28.10
66190;DHT22;52992;52.084;5.412;2023-05-16T09:45:34;21.90;28.10
66190;DHT22;52992;52.084;5.412;2023-05-16T09:48:06;21.50;29.00
66190;DHT22;52992;52.084;5.412;2023-05-16T09:50:36;20.70;30.10
66190;DHT22;52992;52.084;5.412;2023-05-16T09:53:03;20.30;32.00
66190;DHT22;52992;52.084;5.412;2023-05-16T09:55:31;20.10;32.00
66190;DHT22;52992;52.084;5.412;2023-05-16T09:57:58;19.80;33.40
66190;DHT22;52992;52.084;5.412;2023-05-16T10:00:35;19.90;33.00
66190;DHT22;52992;52.084;5.412;2023-05-16T10:03:02;20.00;32.10
66190;DHT22;52992;52.084;5.412;2023-05-16T10:05:32;20.20;32.00
66190;DHT22;52992;52.084;5.412;2023-05-16T10:08:02;21.10;29.50
66190;DHT22;52992;52.084;5.412;2023-05-16T10:10:30;21.90;28.80
66190;DHT22;52992;52.084;5.412;2023-05-16T10:12:58;22.10;28.00
66190;DHT22;52992;52.084;5.412;2023-05-16T10:15:27;21.60;29.20
66190;DHT22;52992;52.084;5.412;2023-05-16T10:17:56;21.60;29.90
66190;DHT22;52992;52.084;5.412;2023-05-16T10:20:26;21.70;28.20
66190;DHT22;52992;52.084;5.412;2023-05-16T10:22:54;22.30;27.80
66190;DHT22;52992;52.084;5.412;2023-05-16T10:25:28;22.80;26.60
66190;DHT22;52992;52.084;5.412;2023-05-16T10:27:58;23.40;26.70
66190;DHT22;52992;52.084;5.412;2023-05-16T10:30:25;23.00;25.90
66190;DHT22;52992;52.084;5.412;2023-05-16T10:32:52;22.10;28.10
66190;DHT22;52992;52.084;5.412;2023-05-16T10:35:20;21.20;29.90
66190;DHT22;52992;52.084;5.412;2023-05-16T10:37:49;20.50;31.90
66190;DHT22;52992;52.084;5.412;2023-05-16T10:40:16;20.10;32.50
66190;DHT22;52992;52.084;5.412;2023-05-16T10:43:01;20.20;32.80
66190;DHT22;52992;52.084;5.412;2023-05-16T10:45:29;20.70;31.70
66190;DHT22;52992;52.084;5.412;2023-05-16T10:48:02;22.00;29.80
66190;DHT22;52992;52.084;5.412;2023-05-16T10:50:37;22.50;27.60
66190;DHT22;52992;52.084;5.412;2023-05-16T10:53:30;21.90;27.90
66190;DHT22;52992;52.084;5.412;2023-05-16T11:01:18;22.30;28.40
66190;DHT22;52992;52.084;5.412;2023-05-16T11:09:20;26.50;23.20
66190;DHT22;52992;52.084;5.412;2023-05-16T11:20:23;24.00;25.60
66190;DHT22;52992;52.084;5.412;2023-05-16T11:22:51;24.40;23.40
66190;DHT22;52992;52.084;5.412;2023-05-16T11:25:37;23.70;25.10
66190;DHT22;52992;52.084;5.412;2023-05-16T11:28:07;22.70;25.90
66190;DHT22;52992;52.084;5.412;2023-05-16T11:30:36;21.80;26.20
66190;DHT22;52992;52.084;5.412;2023-05-16T11:33:07;21.10;27.10
66190;DHT22;52992;52.084;5.412;2023-05-16T11:35:34;20.60;27.80
66190;DHT22;52992;52.084;5.412;2023-05-16T11:38:02;20.20;28.70
66190;DHT22;52992;52.084;5.412;2023-05-16T11:40:29;20.10;30.00
66190;DHT22;52992;52.084;5.412;2023-05-16T11:42:59;20.00;30.00
66190;DHT22;52992;52.084;5.412;2023-05-16T11:45:31;19.90;30.20
66190;DHT22;52992;52.084;5.412;2023-05-16T11:48:01;19.70;30.50
66190;DHT22;52992;52.084;5.412;2023-05-16T11:50:29;19.50;30.80
66190;DHT22;52992;52.084;5.412;2023-05-16T11:52:56;19.40;31.40
66190;DHT22;52992;52.084;5.412;2023-05-16T11:55:27;19.30;31.70
66190;DHT22;52992;52.084;5.412;2023-05-16T11:57:58;19.20;32.00
66190;DHT22;52992;52.084;5.412;2023-05-16T12:00:26;19.10;32.30
66190;DHT22;52992;52.084;5.412;2023-05-16T12:03:01;19.00;32.30
66190;DHT22;52992;52.084;5.412;2023-05-16T12:05:30;19.00;32.00
66190;DHT22;52992;52.084;5.412;2023-05-16T12:07:59;18.90;32.20
66190;DHT22;52992;52.084;5.412;2023-05-16T12:10:26;18.90;32.40
66190;DHT22;52992;52.084;5.412;2023-05-16T12:12:53;18.90;32.50
66190;DHT22;52992;52.084;5.412;2023-05-16T12:15:20;18.90;32.90
66190;DHT22;52992;52.084;5.412;2023-05-16T12:17:48;18.90;33.40
66190;DHT22;52992;52.084;5.412;2023-05-16T12:20:15;19.00;33.00
66190;DHT22;52992;52.084;5.412;2023-05-16T12:22:44;18.90;32.80
66190;DHT22;52992;52.084;5.412;2023-05-16T12:27:48;18.90;32.70
66190;DHT22;52992;52.084;5.412;2023-05-16T12:30:18;18.90;32.80
66190;DHT22;52992;52.084;5.412;2023-05-16T12:32:52;18.90;33.60
66190;DHT22;52992;52.084;5.412;2023-05-16T12:35:19;18.80;33.70
66190;DHT22;52992;52.084;5.412;2023-05-16T12:37:48;18.80;33.70
66190;DHT22;52992;52.084;5.412;2023-05-16T12:40:16;18.80;33.60
66190;DHT22;52992;52.084;5.412;2023-05-16T12:42:43;19.00;33.60
66190;DHT22;52992;52.084;5.412;2023-05-16T12:45:15;19.30;33.60
66190;DHT22;52992;52.084;5.412;2023-05-16T12:47:43;19.60;33.70
66190;DHT22;52992;52.084;5.412;2023-05-16T12:50:11;19.80;33.10
66190;DHT22;52992;52.084;5.412;2023-05-16T12:52:49;19.70;33.30
66190;DHT22;52992;52.084;5.412;2023-05-16T12:55:17;19.60;33.00
66190;DHT22;52992;52.084;5.412;2023-05-16T12:57:45;19.40;33.60
66190;DHT22;52992;52.084;5.412;2023-05-16T13:00:19;19.40;33.40
66190;DHT22;52992;52.084;5.412;2023-05-16T13:02:47;19.30;32.90
66190;DHT22;52992;52.084;5.412;2023-05-16T13:05:14;19.00;33.00
66190;DHT22;52992;52.084;5.412;2023-05-16T13:07:43;18.80;32.80
66190;DHT22;52992;52.084;5.412;2023-05-16T13:10:10;18.50;34.00
66190;DHT22;52992;52.084;5.412;2023-05-16T13:12:38;18.40;34.40
66190;DHT22;52992;52.084;5.412;2023-05-16T13:15:06;18.20;34.40
66190;DHT22;52992;52.084;5.412;2023-05-16T13:17:34;18.10;34.40
66190;DHT22;52992;52.084;5.412;2023-05-16T13:20:02;17.90;34.90
66190;DHT22;52992;52.084;5.412;2023-05-16T13:22:36;17.90;35.80
66190;DHT22;52992;52.084;5.412;2023-05-16T13:25:03;17.90;35.70
66190;DHT22;52992;52.084;5.412;2023-05-16T13:27:31;18.20;35.90
66190;DHT22;52992;52.084;5.412;2023-05-16T13:29:59;18.70;35.50
66190;DHT22;52992;52.084;5.412;2023-05-16T13:32:26;18.90;33.80
66190;DHT22;52992;52.084;5.412;2023-05-16T13:34:53;18.80;33.60
66190;DHT22;52992;52.084;5.412;2023-05-16T13:37:20;18.70;34.40
66190;DHT22;52992;52.084;5.412;2023-05-16T13:39:49;18.50;35.20
66190;DHT22;52992;52.084;5.412;2023-05-16T13:42:16;18.30;35.40
66190;DHT22;52992;52.084;5.412;2023-05-16T13:44:43;18.20;35.90
66190;DHT22;52992;52.084;5.412;2023-05-16T13:47:10;18.10;36.40
66190;DHT22;52992;52.084;5.412;2023-05-16T13:49:37;18.00;36.80
66190;DHT22;52992;52.084;5.412;2023-05-16T13:52:05;18.10;36.60
66190;DHT22;52992;52.084;5.412;2023-05-16T13:54:32;18.10;36.60
66190;DHT22;52992;52.084;5.412;2023-05-16T13:56:59;18.20;36.80
66190;DHT22;52992;52.084;5.412;2023-05-16T13:59:27;18.70;35.30
66190;DHT22;52992;52.084;5.412;2023-05-16T14:02:14;19.20;34.30
66190;DHT22;52992;52.084;5.412;2023-05-16T14:04:41;19.30;33.80
66190;DHT22;52992;52.084;5.412;2023-05-16T14:07:08;19.20;33.30
66190;DHT22;52992;52.084;5.412;2023-05-16T14:09:35;18.90;34.00
66190;DHT22;52992;52.084;5.412;2023-05-16T14:12:05;18.70;34.90
66190;DHT22;52992;52.084;5.412;2023-05-16T14:14:36;18.60;35.40
66190;DHT22;52992;52.084;5.412;2023-05-16T14:17:03;18.50;35.50
66190;DHT22;52992;52.084;5.412;2023-05-16T14:19:30;18.50;36.00
66190;DHT22;52992;52.084;5.412;2023-05-16T14:21:57;18.50;36.20
66190;DHT22;52992;52.084;5.412;2023-05-16T14:24:24;18.50;35.60
66190;DHT22;52992;52.084;5.412;2023-05-16T14:26:51;18.50;35.50
66190;DHT22;52992;52.084;5.412;2023-05-16T14:29:23;18.50;35.90
66190;DHT22;52992;52.084;5.412;2023-05-16T14:31:51;18.50;35.60
66190;DHT22;52992;52.084;5.412;2023-05-16T14:34:19;18.50;35.00
66190;DHT22;52992;52.084;5.412;2023-05-16T14:36:46;18.50;35.30
66190;DHT22;52992;52.084;5.412;2023-05-16T14:39:13;18.40;35.60
66190;DHT22;52992;52.084;5.412;2023-05-16T14:41:40;18.40;35.00
66190;DHT22;52992;52.084;5.412;2023-05-16T14:44:07;18.30;34.80
66190;DHT22;52992;52.084;5.412;2023-05-16T14:46:34;18.30;35.10
66190;DHT22;52992;52.084;5.412;2023-05-16T14:49:01;18.40;34.70
66190;DHT22;52992;52.084;5.412;2023-05-16T14:51:28;18.60;35.00
66190;DHT22;52992;52.084;5.412;2023-05-16T14:53:55;18.70;34.80
66190;DHT22;52992;52.084;5.412;2023-05-16T14:56:22;18.70;34.70
66190;DHT22;52992;52.084;5.412;2023-05-16T14:58:48;18.70;35.00
66190;DHT22;52992;52.084;5.412;2023-05-16T15:01:15;18.70;34.90
66190;DHT22;52992;52.084;5.412;2023-05-16T15:03:42;18.60;35.10
66190;DHT22;52992;52.084;5.412;2023-05-16T15:06:21;18.50;35.10
66190;DHT22;52992;52.084;5.412;2023-05-16T15:08:48;18.40;35.50
66190;DHT22;52992;52.084;5.412;2023-05-16T15:11:15;18.30;35.80
66190;DHT22;52992;52.084;5.412;2023-05-16T15:13:42;18.30;35.80
66190;DHT22;52992;52.084;5.412;2023-05-16T15:16:08;18.30;35.90
66190;DHT22;52992;52.084;5.412;2023-05-16T15:18:35;18.20;36.00
66190;DHT22;52992;52.084;5.412;2023-05-16T15:21:02;18.20;35.60
66190;DHT22;52992;52.084;5.412;2023-05-16T15:23:29;18.30;35.90
66190;DHT22;52992;52.084;5.412;2023-05-16T15:25:56;18.30;35.40
66190;DHT22;52992;52.084;5.412;2023-05-16T15:28:23;18.30;35.00
66190;DHT22;52992;52.084;5.412;2023-05-16T15:30:50;18.30;35.50
66190;DHT22;52992;52.084;5.412;2023-05-16T15:33:17;18.30;35.80
66190;DHT22;52992;52.084;5.412;2023-05-16T15:35:44;18.40;36.00
66190;DHT22;52992;52.084;5.412;2023-05-16T15:38:12;18.40;35.30
66190;DHT22;52992;52.084;5.412;2023-05-16T15:40:38;18.50;35.30
66190;DHT22;52992;52.084;5.412;2023-05-16T15:43:05;18.40;34.60
66190;DHT22;52992;52.084;5.412;2023-05-16T15:45:32;18.50;34.70
66190;DHT22;52992;52.084;5.412;2023-05-16T15:47:59;18.50;35.00
66190;DHT22;52992;52.084;5.412;2023-05-16T15:50:27;18.50;35.00
66190;DHT22;52992;52.084;5.412;2023-05-16T15:52:54;18.50;35.00
66190;DHT22;52992;52.084;5.412;2023-05-16T15:55:23;18.50;35.10
66190;DHT22;52992;52.084;5.412;2023-05-16T15:57:51;18.50;35.50
66190;DHT22;52992;52.084;5.412;2023-05-16T16:00:23;18.50;35.60
66190;DHT22;52992;52.084;5.412;2023-05-16T16:02:50;18.50;35.60
66190;DHT22;52992;52.084;5.412;2023-05-16T16:05:17;18.40;35.70
66190;DHT22;52992;52.084;5.412;2023-05-16T16:07:44;18.30;36.00
66190;DHT22;52992;52.084;5.412;2023-05-16T16:10:11;18.30;36.30
66190;DHT22;52992;52.084;5.412;2023-05-16T16:12:38;18.20;36.30